Arbalist — J8B3636 — position and weather

sailwx.info

Track history (hours):
 
Tides and Currents Weather Stations Pressure Air Temp Water Temp Dewpoint Dewpoint Depression Visibility Wind Speed Wind Dir Waves Ship Positions

Arbalist

Last reported at 2015-Aug-28 22:18 UTC. Time now 2015-Aug-30 01:37 UTC.
Position N 36°31' E 015°40'.

Length 115 m; draft 4.5 m.

Type: Cargo ship. MMSI: 37579300.

Date/timePositionNaut miles runAvg speedWind from/ knotsBaromVisibWave heightAir tempDewpointWater temp
2015-Aug-28 22:18N 36°31' E 015°40'8 9.0
2015-Aug-28 21:26N 36°31' E 015°30'8 9.0
2015-Aug-28 20:33N 36°32' E 015°21'9 9.0
2015-Aug-28 19:33N 36°33' E 015°09'9 8.9
2015-Aug-28 18:34N 36°35' E 014°59'9 8.6
2015-Aug-28 17:33N 36°37' E 014°48'9 8.6
2015-Aug-28 16:34N 36°38' E 014°38'9 8.6
2015-Aug-28 15:34N 36°40' E 014°27'8 8.3
2015-Aug-28 14:33N 36°42' E 014°17'8 7.8
2015-Aug-28 13:34N 36°44' E 014°08'8 7.9
2015-Aug-28 12:33N 36°46' E 013°58'8 8.2
2015-Aug-28 11:33N 36°48' E 013°48'10 9.5
2015-Aug-28 10:32N 36°50' E 013°36'10 9.8
2015-Aug-28 09:30N 36°52' E 013°24'1010.0
2015-Aug-28 08:33N 36°55' E 013°13'1510.2
2015-Aug-28 07:06N 36°58' E 012°54'610.0
2015-Aug-28 06:29N 36°59' E 012°47'910.3
2015-Aug-28 05:34N 37°01' E 012°35'1110.5
2015-Aug-28 04:34N 37°03' E 012°22'67 9.6
2015-Aug-27 21:33N 37°22' E 011°01'10 9.7
2015-Aug-27 20:32N 37°21' E 010°49'19 9.4
2015-Aug-27 18:34N 37°19' E 010°25'9 9.2
2015-Aug-27 17:32N 37°19' E 010°14'9 8.8
2015-Aug-27 16:31N 37°18' E 010°02'8 8.2
2015-Aug-27 15:33N 37°16' E 009°53'  
2015-Aug-24 16:10N 37°16' E 009°52'  
2015-Aug-21 11:04N 37°07' E 012°37'4 7.4
2015-Aug-21 10:33N 37°06' E 012°42'40 7.9
2015-Aug-21 05:31N 36°56' E 013°30'8 7.9
2015-Aug-21 04:33N 36°53' E 013°38'8 8.0
2015-Aug-21 03:33N 36°51' E 013°48'8 8.4
2015-Aug-21 02:33N 36°49' E 013°58'9 8.6
2015-Aug-21 01:33N 36°47' E 014°08'8 8.4
2015-Aug-21 00:33N 36°45' E 014°19'8 8.2
2015-Aug-20 23:33N 36°42' E 014°28'8 7.9
2015-Aug-20 22:33N 36°40' E 014°38'33 8.1
2015-Aug-20 18:28N 36°33' E 015°18'8 8.7
2015-Aug-20 17:33N 36°33' E 015°28'9 8.5
2015-Aug-20 16:32N 36°32' E 015°39'  
Track history (hours):
 
Tides and Currents Weather Stations Pressure Air Temp Water Temp Dewpoint Dewpoint Depression Visibility Wind Speed Wind Dir Waves Ship Positions

Arbalist

Last reported at 2015-Aug-28 22:18 UTC. Time now 2015-Aug-30 01:37 UTC.
Position N 36°31' E 015°40'.

Length 115 m; draft 4.5 m.

Type: Cargo ship. MMSI: 37579300.

Date/timePositionNaut miles runAvg speedWind from/ knotsBaromVisibWave heightAir tempDewpointWater temp
2015-Aug-28 22:18N 36°31' E 015°40'8 9.0
2015-Aug-28 21:26N 36°31' E 015°30'8 9.0
2015-Aug-28 20:33N 36°32' E 015°21'9 9.0
2015-Aug-28 19:33N 36°33' E 015°09'9 8.9
2015-Aug-28 18:34N 36°35' E 014°59'9 8.6
2015-Aug-28 17:33N 36°37' E 014°48'9 8.6
2015-Aug-28 16:34N 36°38' E 014°38'9 8.6
2015-Aug-28 15:34N 36°40' E 014°27'8 8.3
2015-Aug-28 14:33N 36°42' E 014°17'8 7.8
2015-Aug-28 13:34N 36°44' E 014°08'8 7.9
2015-Aug-28 12:33N 36°46' E 013°58'8 8.2
2015-Aug-28 11:33N 36°48' E 013°48'10 9.5
2015-Aug-28 10:32N 36°50' E 013°36'10 9.8
2015-Aug-28 09:30N 36°52' E 013°24'1010.0
2015-Aug-28 08:33N 36°55' E 013°13'1510.2
2015-Aug-28 07:06N 36°58' E 012°54'610.0
2015-Aug-28 06:29N 36°59' E 012°47'910.3
2015-Aug-28 05:34N 37°01' E 012°35'1110.5
2015-Aug-28 04:34N 37°03' E 012°22'67 9.6
2015-Aug-27 21:33N 37°22' E 011°01'10 9.7
2015-Aug-27 20:32N 37°21' E 010°49'19 9.4
2015-Aug-27 18:34N 37°19' E 010°25'9 9.2
2015-Aug-27 17:32N 37°19' E 010°14'9 8.8
2015-Aug-27 16:31N 37°18' E 010°02'8 8.2
2015-Aug-27 15:33N 37°16' E 009°53'  
2015-Aug-24 16:10N 37°16' E 009°52'  
2015-Aug-21 11:04N 37°07' E 012°37'4 7.4
2015-Aug-21 10:33N 37°06' E 012°42'40 7.9
2015-Aug-21 05:31N 36°56' E 013°30'8 7.9
2015-Aug-21 04:33N 36°53' E 013°38'8 8.0
2015-Aug-21 03:33N 36°51' E 013°48'8 8.4
2015-Aug-21 02:33N 36°49' E 013°58'9 8.6
2015-Aug-21 01:33N 36°47' E 014°08'8 8.4
2015-Aug-21 00:33N 36°45' E 014°19'8 8.2
2015-Aug-20 23:33N 36°42' E 014°28'8 7.9
2015-Aug-20 22:33N 36°40' E 014°38'33 8.1
2015-Aug-20 18:28N 36°33' E 015°18'8 8.7
2015-Aug-20 17:33N 36°33' E 015°28'9 8.5
2015-Aug-20 16:32N 36°32' E 015°39'  

Dump ship's entire track history